sensor_id;sensor_type;location;lat;lon;timestamp;pressure;altitude;pressure_sealevel;temperature;humidity
39699;BME280;25372;50.582;12.250;2024-02-28T00:05:01;99839.91;;;3.37;100.00
39699;BME280;25372;50.582;12.250;2024-02-28T00:15:24;99854.94;;;3.27;100.00
39699;BME280;25372;50.582;12.250;2024-02-28T00:25:46;99857.47;;;3.29;100.00
39699;BME280;25372;50.582;12.250;2024-02-28T00:36:08;99863.59;;;3.26;100.00
39699;BME280;25372;50.582;12.250;2024-02-28T00:46:29;99874.41;;;3.41;100.00
39699;BME280;25372;50.582;12.250;2024-02-28T00:56:52;99871.94;;;3.36;100.00
39699;BME280;25372;50.582;12.250;2024-02-28T01:07:13;99877.03;;;3.39;100.00
39699;BME280;25372;50.582;12.250;2024-02-28T01:17:35;99872.84;;;3.35;100.00
39699;BME280;25372;50.582;12.250;2024-02-28T01:27:56;99865.75;;;3.40;100.00
39699;BME280;25372;50.582;12.250;2024-02-28T01:38:19;99840.00;;;3.34;100.00
39699;BME280;25372;50.582;12.250;2024-02-28T01:48:40;99841.56;;;3.40;100.00
39699;BME280;25372;50.582;12.250;2024-02-28T01:59:03;99846.94;;;3.33;100.00
39699;BME280;25372;50.582;12.250;2024-02-28T02:09:25;99845.25;;;3.32;100.00
39699;BME280;25372;50.582;12.250;2024-02-28T02:19:48;99829.66;;;3.32;100.00
39699;BME280;25372;50.582;12.250;2024-02-28T02:30:11;99836.78;;;3.27;100.00
39699;BME280;25372;50.582;12.250;2024-02-28T02:40:32;99833.34;;;3.25;100.00
39699;BME280;25372;50.582;12.250;2024-02-28T02:50:55;99831.47;;;3.30;100.00
39699;BME280;25372;50.582;12.250;2024-02-28T03:01:16;99849.00;;;3.24;100.00
39699;BME280;25372;50.582;12.250;2024-02-28T03:11:38;99858.16;;;3.07;100.00
39699;BME280;25372;50.582;12.250;2024-02-28T03:22:00;99871.22;;;3.05;100.00
39699;BME280;25372;50.582;12.250;2024-02-28T03:32:22;99892.94;;;3.01;100.00
39699;BME280;25372;50.582;12.250;2024-02-28T03:42:43;99886.63;;;3.10;100.00
39699;BME280;25372;50.582;12.250;2024-02-28T03:53:06;99916.25;;;3.03;100.00
39699;BME280;25372;50.582;12.250;2024-02-28T04:03:27;99924.09;;;3.01;100.00
39699;BME280;25372;50.582;12.250;2024-02-28T04:13:50;99947.66;;;2.95;100.00
39699;BME280;25372;50.582;12.250;2024-02-28T04:24:11;99972.94;;;2.88;100.00
39699;BME280;25372;50.582;12.250;2024-02-28T04:34:33;99959.50;;;2.74;100.00
39699;BME280;25372;50.582;12.250;2024-02-28T04:44:56;99982.31;;;2.92;100.00
39699;BME280;25372;50.582;12.250;2024-02-28T04:55:19;99989.47;;;2.84;100.00
39699;BME280;25372;50.582;12.250;2024-02-28T05:05:40;99983.84;;;2.68;100.00
39699;BME280;25372;50.582;12.250;2024-02-28T05:16:03;99990.44;;;2.80;100.00
39699;BME280;25372;50.582;12.250;2024-02-28T05:26:24;99997.59;;;2.72;100.00
39699;BME280;25372;50.582;12.250;2024-02-28T05:36:47;100013.59;;;2.86;100.00
39699;BME280;25372;50.582;12.250;2024-02-28T05:47:08;100024.31;;;2.75;100.00
39699;BME280;25372;50.582;12.250;2024-02-28T05:57:30;100028.38;;;2.84;100.00
39699;BME280;25372;50.582;12.250;2024-02-28T06:07:52;100044.50;;;2.64;100.00
39699;BME280;25372;50.582;12.250;2024-02-28T06:18:14;100062.44;;;2.72;100.00
39699;BME280;25372;50.582;12.250;2024-02-28T06:28:35;100056.91;;;2.84;100.00
39699;BME280;25372;50.582;12.250;2024-02-28T06:38:59;100076.22;;;2.74;100.00
39699;BME280;25372;50.582;12.250;2024-02-28T06:49:20;100083.03;;;2.78;100.00
39699;BME280;25372;50.582;12.250;2024-02-28T06:59:43;100079.78;;;2.70;100.00
39699;BME280;25372;50.582;12.250;2024-02-28T07:10:05;100102.34;;;2.68;100.00
39699;BME280;25372;50.582;12.250;2024-02-28T07:20:28;100099.75;;;2.68;100.00
39699;BME280;25372;50.582;12.250;2024-02-28T07:30:49;100089.41;;;2.64;100.00
39699;BME280;25372;50.582;12.250;2024-02-28T07:41:11;100105.69;;;2.71;100.00
39699;BME280;25372;50.582;12.250;2024-02-28T07:51:32;100110.13;;;2.68;100.00
39699;BME280;25372;50.582;12.250;2024-02-28T08:01:54;100130.34;;;2.86;100.00
39699;BME280;25372;50.582;12.250;2024-02-28T08:12:16;100142.41;;;2.89;100.00
39699;BME280;25372;50.582;12.250;2024-02-28T08:22:38;100137.94;;;2.94;100.00
39699;BME280;25372;50.582;12.250;2024-02-28T08:32:59;100157.94;;;2.90;100.00
39699;BME280;25372;50.582;12.250;2024-02-28T08:43:22;100165.22;;;2.76;100.00
39699;BME280;25372;50.582;12.250;2024-02-28T08:53:43;100166.06;;;2.76;100.00
39699;BME280;25372;50.582;12.250;2024-02-28T09:04:05;100184.81;;;2.86;100.00
39699;BME280;25372;50.582;12.250;2024-02-28T09:14:26;100186.03;;;2.74;100.00
39699;BME280;25372;50.582;12.250;2024-02-28T09:24:49;100178.81;;;2.86;100.00
39699;BME280;25372;50.582;12.250;2024-02-28T09:35:10;100191.03;;;3.14;100.00
39699;BME280;25372;50.582;12.250;2024-02-28T09:45:33;100217.00;;;3.45;100.00
39699;BME280;25372;50.582;12.250;2024-02-28T09:55:55;100224.44;;;3.26;100.00
39699;BME280;25372;50.582;12.250;2024-02-28T10:06:17;100229.13;;;3.45;100.00
39699;BME280;25372;50.582;12.250;2024-02-28T10:16:39;100222.44;;;3.68;99.37
39699;BME280;25372;50.582;12.250;2024-02-28T10:27:02;100237.13;;;3.69;98.41
39699;BME280;25372;50.582;12.250;2024-02-28T10:37:23;100259.34;;;3.79;96.15
39699;BME280;25372;50.582;12.250;2024-02-28T10:47:46;100272.94;;;3.26;97.95
39699;BME280;25372;50.582;12.250;2024-02-28T10:58:11;100273.63;;;3.32;95.75
39699;BME280;25372;50.582;12.250;2024-02-28T11:08:34;100271.00;;;3.96;94.82
39699;BME280;25372;50.582;12.250;2024-02-28T11:18:55;100278.41;;;4.10;93.53
39699;BME280;25372;50.582;12.250;2024-02-28T11:29:21;100274.91;;;4.11;90.37
39699;BME280;25372;50.582;12.250;2024-02-28T11:39:46;100271.41;;;3.82;92.31
39699;BME280;25372;50.582;12.250;2024-02-28T11:50:09;100290.13;;;4.23;90.44
39699;BME280;25372;50.582;12.250;2024-02-28T12:00:30;100296.09;;;3.97;89.64
39699;BME280;25372;50.582;12.250;2024-02-28T12:10:54;100285.34;;;4.66;91.21
39699;BME280;25372;50.582;12.250;2024-02-28T12:21:15;100282.66;;;4.41;86.89
39699;BME280;25372;50.582;12.250;2024-02-28T12:31:37;100289.59;;;4.96;85.95
39699;BME280;25372;50.582;12.250;2024-02-28T12:41:58;100290.25;;;4.48;87.91
39699;BME280;25372;50.582;12.250;2024-02-28T12:52:21;100278.22;;;4.44;87.89
39699;BME280;25372;50.582;12.250;2024-02-28T13:02:42;100286.16;;;4.95;85.13
39699;BME280;25372;50.582;12.250;2024-02-28T13:13:04;100278.84;;;5.07;83.62
39699;BME280;25372;50.582;12.250;2024-02-28T13:23:25;100281.53;;;5.29;82.20
39699;BME280;25372;50.582;12.250;2024-02-28T13:33:48;100282.69;;;5.22;79.47
39699;BME280;25372;50.582;12.250;2024-02-28T13:44:10;100273.97;;;5.48;76.28
39699;BME280;25372;50.582;12.250;2024-02-28T13:54:33;100288.81;;;4.67;77.88
39699;BME280;25372;50.582;12.250;2024-02-28T14:04:54;100274.16;;;4.36;81.70
39699;BME280;25372;50.582;12.250;2024-02-28T14:15:17;100274.56;;;4.22;80.48
39699;BME280;25372;50.582;12.250;2024-02-28T14:25:38;100274.50;;;4.80;79.61
39699;BME280;25372;50.582;12.250;2024-02-28T14:36:01;100250.50;;;5.48;75.63
39699;BME280;25372;50.582;12.250;2024-02-28T14:46:23;100251.06;;;5.56;75.55
39699;BME280;25372;50.582;12.250;2024-02-28T14:56:45;100241.50;;;4.81;78.34
39699;BME280;25372;50.582;12.250;2024-02-28T15:07:07;100257.78;;;4.60;79.19
39699;BME280;25372;50.582;12.250;2024-02-28T15:17:30;100249.28;;;3.98;83.28
39699;BME280;25372;50.582;12.250;2024-02-28T15:27:51;100247.41;;;4.32;81.45
39699;BME280;25372;50.582;12.250;2024-02-28T15:38:13;100257.28;;;3.90;81.79
39699;BME280;25372;50.582;12.250;2024-02-28T15:48:35;100257.91;;;3.37;85.59
39699;BME280;25372;50.582;12.250;2024-02-28T15:58:57;100255.44;;;2.99;87.48
39699;BME280;25372;50.582;12.250;2024-02-28T16:09:19;100257.50;;;2.48;89.61
39699;BME280;25372;50.582;12.250;2024-02-28T16:19:41;100261.22;;;1.99;96.04
39699;BME280;25372;50.582;12.250;2024-02-28T16:30:03;100271.41;;;1.64;99.35
39699;BME280;25372;50.582;12.250;2024-02-28T16:40:26;100268.28;;;0.97;100.00
39699;BME280;25372;50.582;12.250;2024-02-28T16:50:56;100258.81;;;0.45;100.00
39699;BME280;25372;50.582;12.250;2024-02-28T17:01:18;100280.38;;;0.42;100.00
39699;BME280;25372;50.582;12.250;2024-02-28T17:11:40;100297.53;;;-0.20;100.00
39699;BME280;25372;50.582;12.250;2024-02-28T17:22:02;100299.09;;;-0.06;100.00
39699;BME280;25372;50.582;12.250;2024-02-28T17:32:25;100301.16;;;-0.33;100.00
39699;BME280;25372;50.582;12.250;2024-02-28T17:42:47;100309.88;;;-0.44;100.00
39699;BME280;25372;50.582;12.250;2024-02-28T17:53:08;100308.22;;;-0.52;100.00
39699;BME280;25372;50.582;12.250;2024-02-28T18:03:31;100308.63;;;-0.93;100.00
39699;BME280;25372;50.582;12.250;2024-02-28T18:13:52;100316.50;;;-1.11;100.00
39699;BME280;25372;50.582;12.250;2024-02-28T18:24:15;100322.72;;;-1.44;100.00
39699;BME280;25372;50.582;12.250;2024-02-28T18:34:36;100316.75;;;-1.49;100.00
39699;BME280;25372;50.582;12.250;2024-02-28T18:44:58;100323.53;;;-1.35;100.00
39699;BME280;25372;50.582;12.250;2024-02-28T18:55:19;100331.31;;;-1.43;100.00
39699;BME280;25372;50.582;12.250;2024-02-28T19:05:45;100342.72;;;-1.89;100.00
39699;BME280;25372;50.582;12.250;2024-02-28T19:16:07;100345.25;;;-1.80;100.00
39699;BME280;25372;50.582;12.250;2024-02-28T19:26:29;100347.84;;;-1.85;100.00
39699;BME280;25372;50.582;12.250;2024-02-28T19:36:53;100348.81;;;-2.14;100.00
39699;BME280;25372;50.582;12.250;2024-02-28T19:47:15;100341.97;;;-2.22;100.00
39699;BME280;25372;50.582;12.250;2024-02-28T19:57:37;100344.56;;;-2.38;100.00
39699;BME280;25372;50.582;12.250;2024-02-28T20:08:00;100341.97;;;-2.29;100.00
39699;BME280;25372;50.582;12.250;2024-02-28T20:18:21;100336.03;;;-2.56;100.00
39699;BME280;25372;50.582;12.250;2024-02-28T20:28:47;100331.72;;;-2.40;100.00
39699;BME280;25372;50.582;12.250;2024-02-28T20:39:08;100334.34;;;-2.69;100.00
39699;BME280;25372;50.582;12.250;2024-02-28T20:49:31;100346.22;;;-2.11;100.00
39699;BME280;25372;50.582;12.250;2024-02-28T20:59:52;100344.63;;;-2.47;100.00
39699;BME280;25372;50.582;12.250;2024-02-28T21:10:15;100333.50;;;-2.76;100.00
39699;BME280;25372;50.582;12.250;2024-02-28T21:20:36;100319.78;;;-2.83;100.00
39699;BME280;25372;50.582;12.250;2024-02-28T21:30:58;100324.91;;;-3.04;100.00
39699;BME280;25372;50.582;12.250;2024-02-28T21:41:19;100324.91;;;-2.78;100.00
39699;BME280;25372;50.582;12.250;2024-02-28T21:51:42;100319.75;;;-2.69;100.00
39699;BME280;25372;50.582;12.250;2024-02-28T22:02:03;100318.06;;;-3.05;100.00
39699;BME280;25372;50.582;12.250;2024-02-28T22:12:26;100306.06;;;-3.48;100.00
39699;BME280;25372;50.582;12.250;2024-02-28T22:22:47;100310.38;;;-3.15;100.00
39699;BME280;25372;50.582;12.250;2024-02-28T22:33:09;100300.94;;;-3.31;100.00
39699;BME280;25372;50.582;12.250;2024-02-28T22:43:30;100280.34;;;-3.69;100.00
39699;BME280;25372;50.582;12.250;2024-02-28T22:53:52;100299.16;;;-3.63;100.00
39699;BME280;25372;50.582;12.250;2024-02-28T23:04:14;100296.56;;;-3.84;100.00
39699;BME280;25372;50.582;12.250;2024-02-28T23:14:37;100292.28;;;-3.79;100.00
39699;BME280;25372;50.582;12.250;2024-02-28T23:24:58;100289.72;;;-3.86;100.00
39699;BME280;25372;50.582;12.250;2024-02-28T23:35:20;100291.31;;;-4.16;100.00
39699;BME280;25372;50.582;12.250;2024-02-28T23:45:42;100282.78;;;-4.11;100.00
39699;BME280;25372;50.582;12.250;2024-02-28T23:56:05;100275.84;;;-4.33;100.00
